createdAt,value
2022-07-25T00:00:09.192Z,2.40
2022-07-25T00:02:58.157Z,2.70
2022-07-25T00:05:27.217Z,2.90
2022-07-25T00:07:55.879Z,3.10
2022-07-25T00:10:24.893Z,2.60
2022-07-25T00:12:53.412Z,2.20
2022-07-25T00:15:21.948Z,3.00
2022-07-25T00:17:50.805Z,2.70
2022-07-25T00:20:19.385Z,2.60
2022-07-25T00:22:48.017Z,2.60
2022-07-25T00:25:16.580Z,2.20
2022-07-25T00:27:45.056Z,2.60
2022-07-25T00:30:14.057Z,2.60
2022-07-25T00:32:42.606Z,3.00
2022-07-25T00:35:11.232Z,2.90
2022-07-25T00:37:39.817Z,3.00
2022-07-25T00:40:09.577Z,2.50
2022-07-25T00:42:38.401Z,2.90
2022-07-25T00:45:07.493Z,3.50
2022-07-25T00:47:36.006Z,2.80
2022-07-25T00:50:05.149Z,3.40
2022-07-25T00:52:34.983Z,3.10
2022-07-25T00:55:04.890Z,3.10
2022-07-25T00:57:34.084Z,3.50
2022-07-25T01:00:07.503Z,2.80
2022-07-25T01:02:36.088Z,3.60
2022-07-25T01:05:06.018Z,3.40
2022-07-25T01:07:36.105Z,3.50
2022-07-25T01:10:06.373Z,3.10
2022-07-25T01:12:53.261Z,2.40
2022-07-25T01:15:24.668Z,2.80
2022-07-25T01:17:53.472Z,4.00
2022-07-25T01:20:28.730Z,3.50
2022-07-25T01:25:27.522Z,3.30
2022-07-25T01:27:57.836Z,3.70
2022-07-25T01:30:26.988Z,4.00
2022-07-25T01:32:55.480Z,3.30
2022-07-25T01:35:24.097Z,3.10
2022-07-25T01:37:52.694Z,2.80
2022-07-25T01:40:21.338Z,3.10
2022-07-25T01:42:49.980Z,3.50
2022-07-25T01:45:18.719Z,3.50
2022-07-25T01:47:47.251Z,3.50
2022-07-25T01:50:15.870Z,2.70
2022-07-25T01:52:44.460Z,3.50
2022-07-25T01:55:13.176Z,3.20
2022-07-25T01:57:48.609Z,3.70
2022-07-25T02:00:18.902Z,3.30
2022-07-25T02:02:48.145Z,3.40
2022-07-25T02:05:16.726Z,2.60
2022-07-25T02:07:45.289Z,3.40
2022-07-25T02:10:13.886Z,2.80
2022-07-25T02:12:42.433Z,2.70
2022-07-25T02:15:11.422Z,3.40
2022-07-25T02:17:39.930Z,3.20
2022-07-25T02:20:09.338Z,3.00
2022-07-25T02:22:37.796Z,3.50
2022-07-25T02:25:07.438Z,3.20
2022-07-25T02:27:36.037Z,3.60
2022-07-25T02:30:06.395Z,2.80
2022-07-25T02:32:34.875Z,3.50
2022-07-25T02:35:04.593Z,3.00
2022-07-25T02:37:41.921Z,2.70
2022-07-25T02:40:11.160Z,3.80
2022-07-25T02:42:39.931Z,3.80
2022-07-25T02:45:09.270Z,3.20
2022-07-25T02:47:38.271Z,3.90
2022-07-25T02:50:08.182Z,3.10
2022-07-25T02:52:37.134Z,3.80
2022-07-25T02:55:09.710Z,3.10
2022-07-25T02:57:38.622Z,3.20
2022-07-25T03:00:08.585Z,3.50
2022-07-25T03:02:37.204Z,3.00
2022-07-25T03:05:11.440Z,3.50
2022-07-25T03:07:40.526Z,3.10
2022-07-25T03:10:12.479Z,3.80
2022-07-25T03:12:42.373Z,3.00
2022-07-25T03:15:13.339Z,4.00
2022-07-25T03:17:42.371Z,3.70
2022-07-25T03:20:11.773Z,3.90
2022-07-25T03:22:40.510Z,4.30
2022-07-25T03:25:15.901Z,3.70
2022-07-25T03:27:51.025Z,3.30
2022-07-25T03:30:19.897Z,3.60
2022-07-25T03:32:49.136Z,3.40
2022-07-25T03:35:17.769Z,3.70
2022-07-25T03:37:46.281Z,3.30
2022-07-25T03:40:15.922Z,3.90
2022-07-25T03:42:44.771Z,3.60
2022-07-25T03:45:13.572Z,3.60
2022-07-25T03:47:42.132Z,3.50
2022-07-25T03:50:11.405Z,3.70
2022-07-25T03:52:40.202Z,3.80
2022-07-25T03:55:11.263Z,3.60
2022-07-25T03:57:40.048Z,3.90
2022-07-25T04:00:10.588Z,3.90
2022-07-25T04:02:39.540Z,3.60
2022-07-25T04:05:09.280Z,3.50
2022-07-25T04:07:38.666Z,3.50
2022-07-25T04:10:08.550Z,3.70
2022-07-25T04:12:37.650Z,3.60
2022-07-25T04:15:07.131Z,3.60
2022-07-25T04:17:35.666Z,4.10
2022-07-25T04:20:08.834Z,3.70
2022-07-25T04:22:37.423Z,4.90
2022-07-25T04:25:06.717Z,3.50
2022-07-25T04:27:35.214Z,3.80
2022-07-25T04:30:04.140Z,3.60
2022-07-25T04:32:32.679Z,3.90
2022-07-25T04:35:01.184Z,3.50
2022-07-25T04:37:29.813Z,3.70
2022-07-25T04:39:58.370Z,3.70
2022-07-25T04:42:27.981Z,4.30
2022-07-25T04:44:56.525Z,4.00
2022-07-25T04:47:25.121Z,4.20
2022-07-25T04:49:55.589Z,4.80
2022-07-25T04:52:24.133Z,3.90
2022-07-25T04:54:52.931Z,4.60
2022-07-25T04:57:21.443Z,3.90
2022-07-25T04:59:49.977Z,4.30
2022-07-25T05:02:18.647Z,4.20
2022-07-25T05:04:47.656Z,4.20
2022-07-25T05:07:20.703Z,4.20
2022-07-25T05:09:49.283Z,3.70
2022-07-25T05:12:18.258Z,3.90
2022-07-25T05:14:46.772Z,3.80
2022-07-25T05:17:16.004Z,3.90
2022-07-25T05:19:44.480Z,3.70
2022-07-25T05:22:13.288Z,4.00
2022-07-25T05:24:41.970Z,3.50
2022-07-25T05:27:10.535Z,3.30
2022-07-25T05:29:39.086Z,3.30
2022-07-25T05:32:07.604Z,3.00
2022-07-25T05:34:36.102Z,3.30
2022-07-25T05:37:04.665Z,3.80
2022-07-25T05:39:33.191Z,3.90
2022-07-25T05:42:01.791Z,3.90
2022-07-25T05:44:30.305Z,3.70
2022-07-25T05:46:58.877Z,3.40
2022-07-25T05:49:27.420Z,3.40
2022-07-25T05:51:55.992Z,3.00
2022-07-25T05:54:24.503Z,3.70
2022-07-25T05:56:56.186Z,3.30
2022-07-25T05:59:24.737Z,2.40
2022-07-25T06:01:53.534Z,2.50
2022-07-25T06:04:27.034Z,2.30
2022-07-25T06:06:56.827Z,2.60
2022-07-25T06:09:25.573Z,2.30
2022-07-25T06:11:59.738Z,2.20
2022-07-25T06:14:29.672Z,2.30
2022-07-25T06:16:58.222Z,2.50
2022-07-25T06:19:26.886Z,1.90
2022-07-25T06:21:55.398Z,1.80
2022-07-25T06:24:23.871Z,2.40
2022-07-25T06:26:52.500Z,1.60
2022-07-25T06:29:21.002Z,2.10
2022-07-25T06:31:49.616Z,2.20
2022-07-25T06:34:18.202Z,2.10
2022-07-25T06:36:46.711Z,2.10
2022-07-25T06:39:15.316Z,2.50
2022-07-25T06:41:43.853Z,2.20
2022-07-25T06:44:12.357Z,2.00
2022-07-25T06:46:41.332Z,1.90
2022-07-25T06:49:10.021Z,2.40
2022-07-25T06:51:38.651Z,1.80
2022-07-25T06:54:07.521Z,2.20
2022-07-25T06:56:36.507Z,2.00
2022-07-25T06:59:05.153Z,2.20
2022-07-25T07:01:33.762Z,2.00
2022-07-25T07:04:02.762Z,2.30
2022-07-25T07:06:31.658Z,1.80
2022-07-25T07:09:00.178Z,2.20
2022-07-25T07:11:28.720Z,2.00
2022-07-25T07:13:57.347Z,1.80
2022-07-25T07:16:26.478Z,2.00
2022-07-25T07:18:55.543Z,1.80
2022-07-25T07:21:25.050Z,2.50
2022-07-25T07:23:54.567Z,1.80
2022-07-25T07:26:25.547Z,2.10
2022-07-25T07:28:55.280Z,1.60
2022-07-25T07:31:23.932Z,2.20
2022-07-25T07:33:52.539Z,2.00
2022-07-25T07:36:22.347Z,1.70
2022-07-25T07:38:50.906Z,1.70
2022-07-25T07:41:19.857Z,1.70
2022-07-25T07:43:48.491Z,1.70
2022-07-25T07:46:17.046Z,1.80
2022-07-25T07:48:45.812Z,1.50
2022-07-25T07:51:14.366Z,1.30
2022-07-25T07:54:01.421Z,1.50
2022-07-25T07:56:29.946Z,1.80
2022-07-25T07:58:58.549Z,1.60
2022-07-25T08:01:27.294Z,1.40
2022-07-25T08:03:55.994Z,1.50
2022-07-25T08:06:24.716Z,1.70
2022-07-25T08:08:53.404Z,1.90
2022-07-25T08:11:22.103Z,1.30
2022-07-25T08:13:50.780Z,1.50
2022-07-25T08:16:19.462Z,1.80
2022-07-25T08:18:48.153Z,1.50
2022-07-25T08:21:16.892Z,1.40
2022-07-25T08:23:47.395Z,1.70
2022-07-25T08:26:16.006Z,1.50
2022-07-25T08:28:44.584Z,1.60
2022-07-25T08:31:13.174Z,1.70
2022-07-25T08:33:41.736Z,2.00
2022-07-25T08:36:11.662Z,1.40
2022-07-25T08:38:40.421Z,1.70
2022-07-25T08:41:08.939Z,1.40
2022-07-25T08:43:39.589Z,1.40
2022-07-25T08:46:08.543Z,1.50
2022-07-25T08:48:39.100Z,1.50
2022-07-25T08:51:08.597Z,1.50
2022-07-25T08:53:37.254Z,1.30
2022-07-25T08:56:16.053Z,1.00
2022-07-25T08:58:47.531Z,1.50
2022-07-25T09:01:16.208Z,1.30
2022-07-25T09:03:44.885Z,1.10
2022-07-25T09:06:23.426Z,1.60
2022-07-25T09:09:00.746Z,1.90
2022-07-25T09:11:37.836Z,1.70
2022-07-25T09:14:15.195Z,1.40
2022-07-25T09:16:45.534Z,1.00
2022-07-25T09:19:21.413Z,1.10
2022-07-25T09:22:10.244Z,1.20
2022-07-25T09:24:45.581Z,1.30
2022-07-25T09:27:15.154Z,1.40
2022-07-25T09:29:45.299Z,1.80
2022-07-25T09:32:17.718Z,1.40
2022-07-25T09:34:48.986Z,1.50
2022-07-25T09:37:25.279Z,1.40
2022-07-25T09:39:53.949Z,1.30
2022-07-25T09:42:28.005Z,1.20
2022-07-25T09:45:10.130Z,1.30
2022-07-25T09:47:57.541Z,1.30
2022-07-25T09:50:29.299Z,1.30
2022-07-25T09:53:02.589Z,1.30
2022-07-25T09:55:31.686Z,1.20
2022-07-25T09:58:00.259Z,1.30
2022-07-25T10:00:31.473Z,1.30
2022-07-25T10:03:18.783Z,1.20
2022-07-25T10:05:56.761Z,1.30
2022-07-25T10:08:27.076Z,1.30
2022-07-25T10:10:55.729Z,1.50
2022-07-25T10:13:35.299Z,1.60
2022-07-25T10:16:16.945Z,1.60
2022-07-25T10:18:55.300Z,1.50
2022-07-25T10:21:28.359Z,1.10
2022-07-25T10:24:08.237Z,1.00
2022-07-25T10:26:40.234Z,1.20
2022-07-25T10:29:14.093Z,1.40
2022-07-25T10:31:51.102Z,1.40
2022-07-25T10:34:31.777Z,1.20
2022-07-25T10:37:15.404Z,1.20
2022-07-25T10:39:46.386Z,1.30
2022-07-25T10:42:24.053Z,1.30
2022-07-25T10:44:59.677Z,1.50
2022-07-25T10:47:28.735Z,0.80
2022-07-25T10:55:30.042Z,1.40
2022-07-25T10:58:17.948Z,1.20
2022-07-25T11:00:47.106Z,1.10
2022-07-25T11:03:18.365Z,1.40
2022-07-25T11:05:48.219Z,1.70
2022-07-25T11:08:22.443Z,1.00
2022-07-25T11:10:53.146Z,1.60
2022-07-25T11:13:21.760Z,1.40
2022-07-25T11:15:50.727Z,1.80
2022-07-25T11:18:19.363Z,1.40
2022-07-25T11:21:01.730Z,1.50
2022-07-25T11:23:37.264Z,0.90
2022-07-25T11:26:13.447Z,1.50
2022-07-25T11:28:50.308Z,1.30
2022-07-25T11:31:23.218Z,1.40
2022-07-25T11:33:52.019Z,1.70
2022-07-25T11:36:20.794Z,1.50
2022-07-25T11:38:49.987Z,1.70
2022-07-25T11:41:29.880Z,1.50
2022-07-25T11:43:58.482Z,1.60
2022-07-25T11:46:27.034Z,1.50
2022-07-25T11:49:06.220Z,1.50
2022-07-25T11:51:39.334Z,1.40
2022-07-25T11:54:10.981Z,1.50
2022-07-25T11:56:42.844Z,1.60
2022-07-25T11:59:12.376Z,1.60
2022-07-25T12:01:43.770Z,1.00
2022-07-25T12:04:18.969Z,1.20
2022-07-25T12:06:51.345Z,1.10
2022-07-25T12:09:22.251Z,1.40
2022-07-25T12:11:50.868Z,1.20
2022-07-25T12:14:19.377Z,1.30
2022-07-25T12:16:47.998Z,1.20
2022-07-25T12:19:22.336Z,1.50
2022-07-25T12:21:50.969Z,1.30
2022-07-25T12:24:19.684Z,1.80
2022-07-25T12:26:49.114Z,1.50
2022-07-25T12:29:17.729Z,1.50
2022-07-25T12:31:46.224Z,1.60
2022-07-25T12:34:14.842Z,1.30
2022-07-25T12:36:45.314Z,1.20
2022-07-25T12:39:14.065Z,1.20
2022-07-25T12:41:43.046Z,1.30
2022-07-25T12:44:12.449Z,2.70
2022-07-25T12:46:48.813Z,1.40
2022-07-25T12:49:18.500Z,1.30
2022-07-25T12:51:47.427Z,1.60
2022-07-25T12:54:22.022Z,1.30
2022-07-25T12:56:51.672Z,1.20
2022-07-25T12:59:20.394Z,1.00
2022-07-25T13:01:49.155Z,1.50
2022-07-25T13:04:18.004Z,1.50
2022-07-25T13:06:46.560Z,1.60
2022-07-25T13:09:15.257Z,1.30
2022-07-25T13:11:43.991Z,1.20
2022-07-25T13:14:13.464Z,4.70
2022-07-25T13:16:47.076Z,1.50
2022-07-25T13:19:16.652Z,1.50
2022-07-25T13:21:45.249Z,1.30
2022-07-25T13:24:13.944Z,1.20
2022-07-25T13:26:42.520Z,1.60
2022-07-25T13:29:12.538Z,1.60
2022-07-25T13:31:42.842Z,1.20
2022-07-25T13:34:11.782Z,1.30
2022-07-25T13:36:40.408Z,1.60
2022-07-25T13:39:09.226Z,1.10
2022-07-25T13:41:38.065Z,1.60
2022-07-25T13:44:06.875Z,1.60
2022-07-25T13:46:36.220Z,1.40
2022-07-25T13:49:05.102Z,1.30
2022-07-25T13:51:34.030Z,1.10
2022-07-25T13:54:04.353Z,1.70
2022-07-25T13:56:33.750Z,1.60
2022-07-25T13:59:03.539Z,1.30
2022-07-25T14:01:32.437Z,1.60
2022-07-25T14:04:01.136Z,1.30
2022-07-25T14:06:29.683Z,1.60
2022-07-25T14:08:58.233Z,2.80
2022-07-25T14:11:30.500Z,3.90
2022-07-25T14:13:59.411Z,1.50
2022-07-25T14:16:28.072Z,1.20
2022-07-25T14:18:56.898Z,1.30
2022-07-25T14:21:25.619Z,1.40
2022-07-25T14:23:54.180Z,1.50
2022-07-25T14:26:22.818Z,1.50
2022-07-25T14:28:51.649Z,1.10
2022-07-25T14:31:21.522Z,1.30
2022-07-25T14:33:50.181Z,1.20
2022-07-25T14:36:18.805Z,1.30
2022-07-25T14:38:48.589Z,1.50
2022-07-25T14:41:17.291Z,1.30
2022-07-25T14:43:46.829Z,1.20
2022-07-25T14:46:15.988Z,1.30
2022-07-25T14:48:44.712Z,1.50
2022-07-25T14:51:13.345Z,1.20
2022-07-25T14:53:42.195Z,1.50
2022-07-25T14:56:11.161Z,1.70
2022-07-25T14:58:39.924Z,1.70
2022-07-25T15:01:09.608Z,1.30
2022-07-25T15:03:38.202Z,1.30
2022-07-25T15:06:10.055Z,1.40
2022-07-25T15:08:42.970Z,1.60
2022-07-25T15:11:12.368Z,1.20
2022-07-25T15:13:40.907Z,1.30
2022-07-25T15:16:10.228Z,1.70
2022-07-25T15:19:05.468Z,1.70
2022-07-25T15:21:27.789Z,1.30
2022-07-25T15:23:57.645Z,1.50
2022-07-25T15:26:26.919Z,1.30
2022-07-25T15:28:55.625Z,1.70
2022-07-25T15:31:26.511Z,1.70
2022-07-25T15:33:55.234Z,1.50
2022-07-25T15:36:29.150Z,1.60
2022-07-25T15:38:58.299Z,1.50
2022-07-25T15:41:26.853Z,1.40
2022-07-25T15:43:55.410Z,1.50
2022-07-25T15:46:24.045Z,1.90
2022-07-25T15:48:53.525Z,1.40
2022-07-25T15:51:22.129Z,1.40
2022-07-25T15:53:50.855Z,1.70
2022-07-25T15:56:20.013Z,1.90
2022-07-25T15:58:49.540Z,2.10
2022-07-25T16:01:18.501Z,3.60
2022-07-25T16:03:47.236Z,2.20
2022-07-25T16:06:20.747Z,2.60
2022-07-25T16:08:50.294Z,1.60
2022-07-25T16:11:18.878Z,1.80
2022-07-25T16:13:47.495Z,1.50
2022-07-25T16:16:16.203Z,1.40
2022-07-25T16:18:45.038Z,7.20
2022-07-25T16:21:14.136Z,3.50
2022-07-25T16:23:45.480Z,1.80
2022-07-25T16:26:14.431Z,1.40
2022-07-25T16:28:43.485Z,1.60
2022-07-25T16:31:12.224Z,1.70
2022-07-25T16:33:41.127Z,1.40
2022-07-25T16:36:11.246Z,1.60
2022-07-25T16:38:39.835Z,1.70
2022-07-25T16:41:08.364Z,1.50
2022-07-25T16:43:36.838Z,2.30
2022-07-25T16:46:06.585Z,2.60
2022-07-25T16:48:35.957Z,1.70
2022-07-25T16:51:05.167Z,1.70
2022-07-25T16:53:35.860Z,1.50
2022-07-25T16:56:04.839Z,1.60
2022-07-25T16:58:33.987Z,1.70
2022-07-25T17:01:02.574Z,1.30
2022-07-25T17:03:31.258Z,1.60
2022-07-25T17:06:01.409Z,1.30
2022-07-25T17:08:32.069Z,3.90
2022-07-25T17:11:00.754Z,4.00
2022-07-25T17:13:29.355Z,6.00
2022-07-25T17:15:57.978Z,2.40
2022-07-25T17:18:26.841Z,3.10
2022-07-25T17:20:55.507Z,3.60
2022-07-25T17:23:24.682Z,5.20
2022-07-25T17:25:53.955Z,2.20
2022-07-25T17:28:23.423Z,1.90
2022-07-25T17:30:52.167Z,2.00
2022-07-25T17:33:20.778Z,2.00
2022-07-25T17:35:49.883Z,2.40
2022-07-25T17:38:23.781Z,2.40
2022-07-25T17:40:54.495Z,2.10
2022-07-25T17:43:23.122Z,1.90
2022-07-25T17:45:51.838Z,1.70
2022-07-25T17:48:20.417Z,2.00
2022-07-25T17:50:49.091Z,2.40
2022-07-25T17:53:18.215Z,2.20
2022-07-25T17:55:46.929Z,2.00
2022-07-25T17:58:15.649Z,2.00
2022-07-25T18:00:44.379Z,1.70
2022-07-25T18:03:14.496Z,2.30
2022-07-25T18:05:44.188Z,2.10
2022-07-25T18:08:12.768Z,2.10
2022-07-25T18:10:41.291Z,2.00
2022-07-25T18:13:10.283Z,2.30
2022-07-25T18:15:38.998Z,3.80
2022-07-25T18:18:10.504Z,4.40
2022-07-25T18:20:41.205Z,3.70
2022-07-25T18:23:09.989Z,4.20
2022-07-25T18:25:38.749Z,7.80
2022-07-25T18:28:07.737Z,3.60
2022-07-25T18:30:36.307Z,2.60
2022-07-25T18:33:04.916Z,2.30
2022-07-25T18:35:33.481Z,2.50
2022-07-25T18:38:02.569Z,1.90
2022-07-25T18:40:31.145Z,2.30
2022-07-25T18:42:59.896Z,3.10
2022-07-25T18:45:32.066Z,3.80
2022-07-25T18:48:01.466Z,3.80
2022-07-25T18:50:30.026Z,4.50
2022-07-25T18:52:59.324Z,4.90
2022-07-25T18:55:27.941Z,5.90
2022-07-25T18:57:56.625Z,12.50
2022-07-25T19:00:25.365Z,8.40
2022-07-25T19:02:53.896Z,5.00
2022-07-25T19:05:22.918Z,5.40
2022-07-25T19:07:51.869Z,3.90
2022-07-25T19:10:20.368Z,3.90
2022-07-25T19:12:49.007Z,2.70
2022-07-25T19:15:17.541Z,2.30
2022-07-25T19:17:46.327Z,2.20
2022-07-25T19:20:15.109Z,2.70
2022-07-25T19:22:43.649Z,2.50
2022-07-25T19:25:12.203Z,2.20
2022-07-25T19:27:41.793Z,2.20
2022-07-25T19:30:16.844Z,3.40
2022-07-25T19:32:46.531Z,11.80
2022-07-25T19:35:15.259Z,8.30
2022-07-25T19:37:44.886Z,4.70
2022-07-25T19:40:13.784Z,2.40
2022-07-25T19:42:42.548Z,4.20
2022-07-25T19:45:11.641Z,2.00
2022-07-25T19:47:40.195Z,3.10
2022-07-25T19:50:09.264Z,2.20
2022-07-25T19:52:37.912Z,2.70
2022-07-25T19:55:07.251Z,2.50
2022-07-25T19:57:36.618Z,2.80
2022-07-25T20:00:07.027Z,3.20
2022-07-25T20:02:35.980Z,5.60
2022-07-25T20:05:05.210Z,12.10
2022-07-25T20:07:33.787Z,12.70
2022-07-25T20:10:02.454Z,5.40
2022-07-25T20:12:34.438Z,3.10
2022-07-25T20:15:04.258Z,2.80
2022-07-25T20:17:32.856Z,3.50
2022-07-25T20:20:01.473Z,2.60
2022-07-25T20:22:31.579Z,3.20
2022-07-25T20:25:00.125Z,3.00
2022-07-25T20:27:28.716Z,3.60
2022-07-25T20:29:57.431Z,2.50
2022-07-25T20:32:26.151Z,3.30
2022-07-25T20:34:55.186Z,2.40
2022-07-25T20:37:24.114Z,2.90
2022-07-25T20:39:54.049Z,2.50
2022-07-25T20:42:22.713Z,2.70
2022-07-25T20:44:51.277Z,2.30
2022-07-25T20:47:19.856Z,3.00
2022-07-25T20:49:48.392Z,3.00
2022-07-25T20:52:16.976Z,2.80
2022-07-25T20:54:45.543Z,2.20
2022-07-25T20:57:14.207Z,2.70
2022-07-25T20:59:42.745Z,3.10
2022-07-25T21:02:11.738Z,2.50
2022-07-25T21:04:40.941Z,3.20
2022-07-25T21:07:09.456Z,2.90
2022-07-25T21:09:39.567Z,2.90
2022-07-25T21:12:08.692Z,2.90
2022-07-25T21:14:37.664Z,3.40
2022-07-25T21:17:06.296Z,3.50
2022-07-25T21:19:34.883Z,3.40
2022-07-25T21:22:04.197Z,3.20
2022-07-25T21:24:32.885Z,3.40
2022-07-25T21:27:02.114Z,4.70
2022-07-25T21:29:30.932Z,8.90
2022-07-25T21:31:59.438Z,10.70
2022-07-25T21:34:28.017Z,10.80
2022-07-25T21:36:57.114Z,7.00
2022-07-25T21:39:26.331Z,4.30
2022-07-25T21:41:55.543Z,3.80
2022-07-25T21:44:24.352Z,2.80
2022-07-25T21:46:53.575Z,2.90
2022-07-25T21:49:42.805Z,2.60
2022-07-25T21:52:13.456Z,2.50
2022-07-25T21:54:43.545Z,2.40
2022-07-25T21:57:13.684Z,2.70
2022-07-25T21:59:44.289Z,2.60
2022-07-25T22:03:09.329Z,2.80
2022-07-25T22:05:38.020Z,3.00
2022-07-25T22:08:06.820Z,2.70
2022-07-25T22:10:35.627Z,2.80
2022-07-25T22:13:07.355Z,2.70
2022-07-25T22:15:36.099Z,2.40
2022-07-25T22:18:05.555Z,3.40
2022-07-25T22:20:34.499Z,2.80
2022-07-25T22:23:04.369Z,6.20
2022-07-25T22:25:33.045Z,5.30
2022-07-25T22:28:01.909Z,3.80
2022-07-25T22:30:30.719Z,2.80
2022-07-25T22:32:59.414Z,2.60
2022-07-25T22:35:28.297Z,2.80
2022-07-25T22:37:57.064Z,3.00
2022-07-25T22:40:25.773Z,2.70
2022-07-25T22:42:54.494Z,3.00
2022-07-25T22:45:24.232Z,2.80
2022-07-25T22:47:53.098Z,3.80
2022-07-25T22:50:21.931Z,3.50
2022-07-25T22:52:51.054Z,3.40
2022-07-25T22:55:19.999Z,2.70
2022-07-25T22:57:49.897Z,2.70
2022-07-25T23:00:18.852Z,3.00
2022-07-25T23:02:47.592Z,2.80
2022-07-25T23:05:16.431Z,2.80
2022-07-25T23:07:45.138Z,2.90
2022-07-25T23:10:13.991Z,3.20
2022-07-25T23:12:43.076Z,3.20
2022-07-25T23:15:11.785Z,2.60
2022-07-25T23:17:40.523Z,2.60
2022-07-25T23:20:10.522Z,3.00
2022-07-25T23:22:39.298Z,3.40
2022-07-25T23:25:10.733Z,3.10
2022-07-25T23:27:39.719Z,2.70
2022-07-25T23:30:09.675Z,2.70
2022-07-25T23:32:38.363Z,2.60
2022-07-25T23:35:07.701Z,2.80
2022-07-25T23:37:36.527Z,3.00
2022-07-25T23:40:06.689Z,2.70
2022-07-25T23:42:35.215Z,3.10
2022-07-25T23:45:47.724Z,2.80
2022-07-25T23:48:16.884Z,2.90
2022-07-25T23:50:45.581Z,2.90
2022-07-25T23:53:14.260Z,2.50
2022-07-25T23:55:42.932Z,3.00
2022-07-25T23:58:11.644Z,3.00
